createdAt,value
2017-05-08T00:00:23.821Z,66.47
2017-05-08T00:01:34.169Z,66.47
2017-05-08T00:02:44.529Z,66.38
2017-05-08T00:03:54.890Z,66.28
2017-05-08T00:05:05.248Z,66.28
2017-05-08T00:06:14.979Z,66.67
2017-05-08T00:07:25.026Z,66.19
2017-05-08T00:08:35.060Z,66.67
2017-05-08T00:09:45.414Z,66.67
2017-05-08T00:10:55.750Z,66.28
2017-05-08T00:12:05.788Z,66.28
2017-05-08T00:13:16.149Z,66.19
2017-05-08T00:14:26.531Z,66.47
2017-05-08T00:15:36.912Z,66.38
2017-05-08T00:16:47.264Z,66.38
2017-05-08T00:17:57.604Z,66.38
2017-05-08T00:19:07.957Z,66.38
2017-05-08T00:20:17.986Z,66.38
2017-05-08T00:21:28.336Z,66.47
2017-05-08T00:22:38.700Z,66.28
2017-05-08T00:23:49.057Z,66.19
2017-05-08T00:24:59.417Z,66.19
2017-05-08T00:26:09.473Z,66.38
2017-05-08T00:27:19.821Z,66.28
2017-05-08T00:28:29.929Z,66.28
2017-05-08T00:29:40.292Z,66.19
2017-05-08T00:30:50.329Z,66.38
2017-05-08T00:32:00.671Z,66.47
2017-05-08T00:33:10.715Z,66.09
2017-05-08T00:34:21.076Z,66.09
2017-05-08T00:35:31.418Z,66.19
2017-05-08T00:36:41.766Z,66.19
2017-05-08T00:37:52.112Z,66.19
2017-05-08T00:39:02.143Z,66.38
2017-05-08T00:40:12.498Z,66.19
2017-05-08T00:41:22.847Z,66.19
2017-05-08T00:42:32.905Z,66.19
2017-05-08T00:43:43.266Z,66.09
2017-05-08T00:44:53.607Z,66.38
2017-05-08T00:46:03.951Z,66.09
2017-05-08T00:47:14.305Z,66.09
2017-05-08T00:48:24.332Z,66.09
2017-05-08T00:49:34.696Z,66.16
2017-05-08T00:50:45.050Z,66.06
2017-05-08T00:51:55.407Z,66.06
2017-05-08T00:53:05.487Z,66.09
2017-05-08T00:54:15.845Z,66.09
2017-05-08T00:55:25.886Z,66.09
2017-05-08T00:56:36.234Z,66.25
2017-05-08T00:57:46.369Z,66.06
2017-05-08T00:58:56.722Z,66.06
2017-05-08T01:00:07.061Z,66.06
2017-05-08T01:01:17.412Z,66.06
2017-05-08T01:02:27.782Z,66.25
2017-05-08T01:03:37.819Z,66.16
2017-05-08T01:04:48.162Z,66.16
2017-05-08T01:05:58.542Z,66.06
2017-05-08T01:07:08.892Z,66.06
2017-05-08T01:08:18.920Z,66.16
2017-05-08T01:09:29.277Z,66.06
2017-05-08T01:10:39.315Z,66.35
2017-05-08T01:11:49.660Z,66.16
2017-05-08T01:13:00.013Z,66.44
2017-05-08T01:14:10.371Z,66.06
2017-05-08T01:15:20.116Z,66.35
2017-05-08T01:16:29.836Z,66.06
2017-05-08T01:17:40.183Z,66.06
2017-05-08T01:18:50.535Z,66.16
2017-05-08T01:20:00.594Z,66.06
2017-05-08T01:21:10.980Z,66.16
2017-05-08T01:22:21.326Z,66.06
2017-05-08T01:23:31.670Z,66.06
2017-05-08T01:24:42.021Z,66.06
2017-05-08T01:25:52.057Z,66.25
2017-05-08T01:27:02.408Z,66.25
2017-05-08T01:28:12.756Z,66.44
2017-05-08T01:29:23.132Z,66.44
2017-05-08T01:30:33.505Z,66.35
2017-05-08T01:31:43.859Z,66.35
2017-05-08T01:32:54.191Z,66.44
2017-05-08T01:34:04.273Z,66.06
2017-05-08T01:35:14.616Z,66.44
2017-05-08T01:36:24.651Z,66.25
2017-05-08T01:37:35.007Z,66.44
2017-05-08T01:38:45.085Z,66.25
2017-05-08T01:39:55.441Z,66.25
2017-05-08T01:41:05.792Z,66.25
2017-05-08T01:42:16.150Z,66.16
2017-05-08T01:43:26.181Z,66.44
2017-05-08T01:44:36.533Z,66.44
2017-05-08T01:45:46.898Z,66.35
2017-05-08T01:46:57.235Z,66.35
2017-05-08T01:48:07.580Z,66.44
2017-05-08T01:49:18.002Z,66.25
2017-05-08T01:50:28.387Z,66.44
2017-05-08T01:51:38.754Z,66.25
2017-05-08T01:52:48.470Z,66.25
2017-05-08T01:53:58.824Z,66.25
2017-05-08T01:55:09.179Z,66.16
2017-05-08T01:56:19.547Z,66.16
2017-05-08T01:57:29.905Z,66.16
2017-05-08T01:58:40.275Z,66.25
2017-05-08T01:59:50.638Z,66.25
2017-05-08T02:01:00.693Z,66.16
2017-05-08T02:02:10.735Z,66.63
2017-05-08T02:03:20.453Z,66.25
2017-05-08T02:04:30.800Z,66.35
2017-05-08T02:05:41.144Z,66.16
2017-05-08T02:06:50.861Z,66.16
2017-05-08T02:08:01.209Z,66.44
2017-05-08T02:09:11.576Z,66.63
2017-05-08T02:10:21.612Z,66.16
2017-05-08T02:11:31.648Z,66.35
2017-05-08T02:12:42.014Z,66.25
2017-05-08T02:13:52.044Z,66.16
2017-05-08T02:15:02.392Z,66.44
2017-05-08T02:16:12.788Z,66.44
2017-05-08T02:17:23.143Z,66.25
2017-05-08T02:18:33.191Z,66.54
2017-05-08T02:19:43.532Z,66.16
2017-05-08T02:20:53.920Z,66.25
2017-05-08T02:22:04.269Z,66.25
2017-05-08T02:23:14.284Z,66.35
2017-05-08T02:24:24.638Z,66.16
2017-05-08T02:25:35.007Z,66.44
2017-05-08T02:26:45.342Z,66.25
2017-05-08T02:27:55.689Z,66.25
2017-05-08T02:29:06.047Z,66.35
2017-05-08T02:30:16.390Z,66.16
2017-05-08T02:31:26.745Z,66.44
2017-05-08T02:32:36.771Z,66.54
2017-05-08T02:33:47.122Z,66.54
2017-05-08T02:34:57.502Z,66.16
2017-05-08T02:36:07.863Z,66.63
2017-05-08T02:37:17.904Z,66.25
2017-05-08T02:38:28.230Z,66.25
2017-05-08T02:39:38.592Z,66.44
2017-05-08T02:40:48.317Z,66.54
2017-05-08T02:41:58.044Z,66.44
2017-05-08T02:43:08.401Z,66.44
2017-05-08T02:44:18.124Z,66.44
2017-05-08T02:45:28.452Z,66.44
2017-05-08T02:46:38.797Z,66.54
2017-05-08T02:47:49.136Z,66.63
2017-05-08T02:48:59.483Z,66.83
2017-05-08T02:50:09.841Z,66.16
2017-05-08T02:51:19.867Z,66.54
2017-05-08T02:52:30.207Z,66.63
2017-05-08T02:53:40.554Z,66.54
2017-05-08T02:54:50.908Z,66.54
2017-05-08T02:56:00.955Z,66.54
2017-05-08T02:57:11.313Z,66.63
2017-05-08T02:58:21.661Z,66.54
2017-05-08T02:59:32.008Z,66.54
2017-05-08T03:00:42.362Z,66.54
2017-05-08T03:01:52.712Z,66.54
2017-05-08T03:33:08.463Z,63.99
2017-05-08T03:34:18.481Z,64.37
2017-05-08T03:35:28.829Z,64.85
2017-05-08T03:36:39.193Z,66.28
2017-05-08T03:37:49.542Z,65.99
2017-05-08T03:38:59.906Z,66.31
2017-05-08T03:40:09.963Z,67.36
2017-05-08T03:41:20.330Z,67.07
2017-05-08T03:42:30.367Z,66.92
2017-05-08T03:43:40.081Z,67.01
2017-05-08T03:44:50.417Z,67.01
2017-05-08T03:46:00.764Z,66.95
2017-05-08T03:47:11.120Z,66.85
2017-05-08T03:48:21.166Z,66.95
2017-05-08T03:49:31.205Z,66.66
2017-05-08T03:50:41.611Z,66.99
2017-05-08T03:51:51.661Z,66.5
2017-05-08T03:53:01.385Z,66.79
2017-05-08T03:54:11.730Z,66.63
2017-05-08T03:55:22.087Z,66.25
2017-05-08T03:56:32.439Z,66.44
2017-05-08T03:57:42.779Z,66.16
2017-05-08T03:58:52.813Z,66.67
2017-05-08T04:00:02.546Z,66.57
2017-05-08T04:01:12.910Z,66.28
2017-05-08T04:02:23.298Z,66.28
2017-05-08T04:03:33.656Z,66.47
2017-05-08T04:04:44.001Z,66.41
2017-05-08T04:05:54.043Z,66.13
2017-05-08T04:07:04.079Z,65.94
2017-05-08T04:08:14.443Z,65.65
2017-05-08T04:09:24.778Z,66.06
2017-05-08T04:10:35.135Z,65.88
2017-05-08T04:11:45.514Z,66.25
2017-05-08T04:12:55.885Z,66.35
2017-05-08T04:14:06.287Z,65.68
2017-05-08T04:15:16.335Z,65.58
2017-05-08T04:16:26.063Z,65.33
2017-05-08T04:17:36.420Z,65.14
2017-05-08T04:18:46.472Z,65.52
2017-05-08T04:19:56.829Z,65.62
2017-05-08T04:21:06.881Z,64.69
2017-05-08T04:22:17.236Z,63.67
2017-05-08T04:23:27.581Z,63.32
2017-05-08T04:24:37.925Z,63.45
2017-05-08T04:25:48.060Z,63.32
2017-05-08T04:26:58.395Z,63.42
2017-05-08T04:28:08.748Z,64.12
2017-05-08T04:29:18.815Z,64.02
2017-05-08T04:30:28.855Z,64.66
2017-05-08T04:31:39.203Z,64.47
2017-05-08T04:32:49.560Z,64.76
2017-05-08T04:33:59.910Z,64.66
2017-05-08T04:35:10.297Z,64.5
2017-05-08T04:36:20.654Z,64.5
2017-05-08T04:37:31.005Z,64.69
2017-05-08T04:38:41.357Z,64.5
2017-05-08T04:39:51.699Z,65.08
2017-05-08T04:41:02.060Z,64.89
2017-05-08T04:42:12.422Z,64.59
2017-05-08T04:43:22.470Z,64.53
2017-05-08T04:44:32.822Z,63.76
2017-05-08T04:45:42.877Z,63.35
2017-05-08T04:46:53.240Z,62.32
2017-05-08T04:48:03.309Z,61.77
2017-05-08T04:49:13.351Z,62.64
2017-05-08T04:50:23.693Z,63.31
2017-05-08T04:51:34.033Z,63.67
2017-05-08T04:52:44.370Z,63.67
2017-05-08T04:53:54.737Z,63.57
2017-05-08T04:55:04.775Z,63.51
2017-05-08T04:56:15.137Z,63.51
2017-05-08T04:57:25.484Z,63.51
2017-05-08T04:58:35.841Z,63.41
2017-05-08T04:59:46.217Z,63.7
2017-05-08T05:00:56.567Z,64.28
2017-05-08T05:02:06.607Z,64.37
2017-05-08T05:03:16.986Z,64.66
2017-05-08T05:04:27.371Z,65.78
2017-05-08T05:05:37.712Z,65.75
2017-05-08T05:06:48.293Z,65.84
2017-05-08T05:07:58.355Z,65.81
2017-05-08T05:09:08.704Z,65.72
2017-05-08T05:10:19.053Z,66
2017-05-08T05:11:29.408Z,66.1
2017-05-08T05:12:39.779Z,65.97
2017-05-08T05:13:49.838Z,65.97
2017-05-08T05:15:00.190Z,65.78
2017-05-08T05:16:10.531Z,65.97
2017-05-08T05:17:20.593Z,65.49
2017-05-08T05:18:30.644Z,65.49
2017-05-08T05:19:41.001Z,65.69
2017-05-08T05:20:50.748Z,65.3
2017-05-08T05:22:01.141Z,64.72
2017-05-08T05:23:11.189Z,64.56
2017-05-08T05:24:21.544Z,64.56
2017-05-08T05:25:31.259Z,64.85
2017-05-08T05:26:41.661Z,64.76
2017-05-08T05:27:51.691Z,64.66
2017-05-08T05:29:02.035Z,65.23
2017-05-08T05:30:11.756Z,65.05
2017-05-08T05:31:21.794Z,65.53
2017-05-08T05:32:32.149Z,65.4
2017-05-08T05:33:42.726Z,65.43
2017-05-08T05:34:53.084Z,65.78
2017-05-08T05:36:03.126Z,65.33
2017-05-08T05:37:13.485Z,65.33
2017-05-08T05:38:23.837Z,64.66
2017-05-08T05:39:33.875Z,64.85
2017-05-08T05:40:44.228Z,64.6
2017-05-08T05:41:54.581Z,64.79
2017-05-08T05:43:04.958Z,64.79
2017-05-08T05:44:15.302Z,64.79
2017-05-08T05:45:25.359Z,64.12
2017-05-08T05:46:35.770Z,64.31
2017-05-08T05:47:46.146Z,64.34
2017-05-08T05:48:56.221Z,64.15
2017-05-08T05:50:06.582Z,64.34
2017-05-08T05:51:16.973Z,63.95
2017-05-08T05:52:27.028Z,64.05
2017-05-08T05:53:37.378Z,63.6
2017-05-08T05:54:47.755Z,62.83
2017-05-08T05:55:58.130Z,62.41
2017-05-08T05:57:07.880Z,61.87
2017-05-08T05:58:17.923Z,61.96
2017-05-08T05:59:28.290Z,61.8
2017-05-08T06:00:38.671Z,62.09
2017-05-08T06:01:48.719Z,62.02
2017-05-08T06:02:59.070Z,62.31
2017-05-08T06:04:09.737Z,62.7
2017-05-08T06:05:19.796Z,62.79
2017-05-08T06:06:30.195Z,62.89
2017-05-08T06:07:40.548Z,62.92
2017-05-08T06:08:50.905Z,62.73
2017-05-08T06:10:01.260Z,62.37
2017-05-08T06:11:11.313Z,62.28
2017-05-08T06:12:21.676Z,62.37
2017-05-08T06:13:32.036Z,62.57
2017-05-08T06:14:42.412Z,62.76
2017-05-08T06:15:52.488Z,62.95
2017-05-08T06:17:02.550Z,63.43
2017-05-08T06:18:12.897Z,63.92
2017-05-08T06:19:22.933Z,63.7
2017-05-08T06:20:32.994Z,63.79
2017-05-08T06:21:43.362Z,63.79
2017-05-08T06:22:53.079Z,63.89
2017-05-08T06:24:03.441Z,63.76
2017-05-08T06:25:13.803Z,63.76
2017-05-08T06:26:23.837Z,64.15
2017-05-08T06:27:34.200Z,63.85
2017-05-08T06:28:44.688Z,64.5
2017-05-08T06:29:54.409Z,64.5
2017-05-08T06:31:04.442Z,64.79
2017-05-08T06:32:14.863Z,64.95
2017-05-08T06:33:25.245Z,64.76
2017-05-08T06:34:35.625Z,64.76
2017-05-08T06:35:45.991Z,64.66
2017-05-08T06:36:56.365Z,64.56
2017-05-08T06:38:06.723Z,63.89
2017-05-08T06:39:16.999Z,63.54
2017-05-08T06:40:27.364Z,63.63
2017-05-08T06:41:37.408Z,63.28
2017-05-08T06:42:47.449Z,62.51
2017-05-08T06:43:57.485Z,62.31
2017-05-08T06:45:07.533Z,62.51
2017-05-08T06:46:17.594Z,62.44
2017-05-08T06:47:27.640Z,62.54
2017-05-08T06:48:38.048Z,62.08
2017-05-08T06:49:48.102Z,61.89
2017-05-08T06:50:58.458Z,62.5
2017-05-08T06:52:08.802Z,61.54
2017-05-08T06:53:18.865Z,61.27
2017-05-08T06:54:29.230Z,61.47
2017-05-08T06:55:39.589Z,61.47
2017-05-08T06:56:49.963Z,62.24
2017-05-08T06:58:00.324Z,61.95
2017-05-08T06:59:10.695Z,61.95
2017-05-08T07:00:21.069Z,62.44
2017-05-08T07:01:31.426Z,62.34
2017-05-08T07:02:41.475Z,62.63
2017-05-08T07:03:51.815Z,62.79
2017-05-08T07:05:01.861Z,62.79
2017-05-08T07:06:12.235Z,63.47
2017-05-08T07:07:22.615Z,63.82
2017-05-08T07:08:32.962Z,64.11
2017-05-08T07:09:43.324Z,63.98
2017-05-08T07:10:53.367Z,64.56
2017-05-08T07:12:03.718Z,64.76
2017-05-08T07:13:14.074Z,64.37
2017-05-08T07:14:24.431Z,64.34
2017-05-08T07:15:34.536Z,64.43
2017-05-08T07:16:44.883Z,63.85
2017-05-08T07:17:54.940Z,64.34
2017-05-08T07:19:05.301Z,63.85
2017-05-08T07:20:15.035Z,63.67
2017-05-08T07:21:25.069Z,63.6
2017-05-08T07:22:35.478Z,63.5
2017-05-08T07:23:45.849Z,63.31
2017-05-08T07:24:56.209Z,62.73
2017-05-08T07:26:06.559Z,62.66
2017-05-08T07:27:16.908Z,62.66
2017-05-08T07:28:27.002Z,62.76
2017-05-08T07:29:37.348Z,62.18
2017-05-08T07:30:47.398Z,62.4
2017-05-08T07:31:57.764Z,62.5
2017-05-08T07:33:08.183Z,62.7
2017-05-08T07:34:18.216Z,62.31
2017-05-08T07:35:28.575Z,62.53
2017-05-08T07:36:38.322Z,62.63
2017-05-08T07:37:48.664Z,62.34
2017-05-08T07:38:59.011Z,62.34
2017-05-08T07:40:09.350Z,62.82
2017-05-08T07:41:19.719Z,62.73
2017-05-08T07:42:29.473Z,62.73
2017-05-08T07:43:39.513Z,62.98
2017-05-08T07:44:49.245Z,63.47
2017-05-08T07:45:58.987Z,63.95
2017-05-08T07:47:08.404Z,63.82
2017-05-08T07:48:18.749Z,64.11
2017-05-08T07:49:29.118Z,64.66
2017-05-08T07:50:39.469Z,64.66
2017-05-08T07:51:49.808Z,64.86
2017-05-08T07:53:00.171Z,64.66
2017-05-08T07:54:10.515Z,64.34
2017-05-08T07:55:20.875Z,64.56
2017-05-08T07:56:30.656Z,64.53
2017-05-08T07:57:41.003Z,64.34
2017-05-08T07:58:51.056Z,64.43
2017-05-08T08:00:01.443Z,64.28
2017-05-08T08:01:11.490Z,63.4
2017-05-08T08:02:21.841Z,63.79
2017-05-08T08:03:31.879Z,63.6
2017-05-08T08:04:42.224Z,63.6
2017-05-08T08:05:52.268Z,63.79
2017-05-08T08:07:02.624Z,63.5
2017-05-08T08:08:12.673Z,62.92
2017-05-08T08:09:23.060Z,62.37
2017-05-08T08:10:33.431Z,62.79
2017-05-08T08:11:43.794Z,62.98
2017-05-08T08:12:54.180Z,62.6
2017-05-08T08:14:04.538Z,62.4
2017-05-08T08:15:14.592Z,62.4
2017-05-08T08:16:24.950Z,62.79
2017-05-08T08:17:35.326Z,62.92
2017-05-08T08:18:45.689Z,62.92
2017-05-08T08:19:56.041Z,62.82
2017-05-08T08:21:06.427Z,62.44
2017-05-08T08:22:16.807Z,62.92
2017-05-08T08:23:27.177Z,62.27
2017-05-08T08:24:37.547Z,62.47
2017-05-08T08:25:47.587Z,62.95
2017-05-08T08:26:57.949Z,62.85
2017-05-08T08:28:08.319Z,62.85
2017-05-08T08:29:18.661Z,62.37
2017-05-08T08:30:28.753Z,62.37
2017-05-08T08:31:39.119Z,62.11
2017-05-08T08:32:49.153Z,62.4
2017-05-08T08:33:59.557Z,61.46
2017-05-08T08:35:09.350Z,61.46
2017-05-08T08:36:19.402Z,61.56
2017-05-08T08:37:29.756Z,62.24
2017-05-08T08:38:40.109Z,62.43
2017-05-08T08:39:50.147Z,62.69
2017-05-08T08:40:59.867Z,62.5
2017-05-08T08:42:10.266Z,63.43
2017-05-08T08:43:20.651Z,63.05
2017-05-08T08:44:31.025Z,63.82
2017-05-08T08:45:41.375Z,63.05
2017-05-08T08:46:51.746Z,63.05
2017-05-08T08:48:01.773Z,62.85
2017-05-08T08:49:12.126Z,62.85
2017-05-08T08:50:22.485Z,62.5
2017-05-08T08:51:32.847Z,62.4
2017-05-08T08:52:42.907Z,61.18
2017-05-08T08:53:53.265Z,60.91
2017-05-08T08:55:03.320Z,60.65
2017-05-08T08:56:13.041Z,60.65
2017-05-08T08:57:23.393Z,60.78
2017-05-08T08:58:33.440Z,60.49
2017-05-08T08:59:43.791Z,60.68
2017-05-08T09:00:54.191Z,61.17
2017-05-08T09:02:04.254Z,60.97
2017-05-08T09:03:14.297Z,61.65
2017-05-08T09:04:24.335Z,61.43
2017-05-08T09:05:34.054Z,61.52
2017-05-08T09:06:44.121Z,61.75
2017-05-08T09:07:54.487Z,62.3
2017-05-08T09:09:03.900Z,62.3
2017-05-08T09:10:14.272Z,61.91
2017-05-08T09:11:24.309Z,62.79
2017-05-08T09:12:34.765Z,62.56
2017-05-08T09:13:44.820Z,62.59
2017-05-08T09:14:54.876Z,62.59
2017-05-08T09:16:05.229Z,62.88
2017-05-08T09:17:15.275Z,62.98
2017-05-08T09:18:25.638Z,62.56
2017-05-08T09:19:35.674Z,62.85
2017-05-08T09:20:46.018Z,62.85
2017-05-08T09:21:56.372Z,62.75
2017-05-08T09:23:06.403Z,62.66
2017-05-08T09:24:16.463Z,62.95
2017-05-08T09:25:26.820Z,62.49
2017-05-08T09:26:37.185Z,62.3
2017-05-08T09:27:47.553Z,62.1
2017-05-08T09:28:57.610Z,62.79
2017-05-08T09:30:08.019Z,62.59
2017-05-08T09:31:18.052Z,62.49
2017-05-08T09:32:28.418Z,62.3
2017-05-08T09:33:38.776Z,62.59
2017-05-08T09:34:48.822Z,63.17
2017-05-08T09:35:59.183Z,62.59
2017-05-08T09:37:09.533Z,62.85
2017-05-08T09:38:19.906Z,62.95
2017-05-08T09:39:29.963Z,62.75
2017-05-08T09:40:40.325Z,63.04
2017-05-08T09:41:50.683Z,63.14
2017-05-08T09:43:00.742Z,62.66
2017-05-08T09:44:10.787Z,62.85
2017-05-08T09:45:21.151Z,62.75
2017-05-08T09:46:31.530Z,62.46
2017-05-08T09:47:41.882Z,62.49
2017-05-08T09:48:52.232Z,62.01
2017-05-08T09:50:02.584Z,62.2
2017-05-08T09:51:12.622Z,62.4
2017-05-08T09:52:22.960Z,62.49
2017-05-08T09:53:33.009Z,62.01
2017-05-08T09:54:43.375Z,62.43
2017-05-08T09:55:53.731Z,61.85
2017-05-08T09:57:04.067Z,61.26
2017-05-08T09:58:14.154Z,61.68
2017-05-08T09:59:24.505Z,61
2017-05-08T10:00:34.870Z,61.42
2017-05-08T10:01:45.247Z,61.32
2017-05-08T10:02:55.617Z,60.94
2017-05-08T10:04:06.010Z,61.45
2017-05-08T10:05:16.062Z,61.45
2017-05-08T10:06:26.422Z,61.16
2017-05-08T10:07:36.786Z,61.48
2017-05-08T10:08:47.147Z,61
2017-05-08T10:09:57.199Z,60.9
2017-05-08T10:11:07.566Z,61.29
2017-05-08T10:12:17.618Z,61.19
2017-05-08T10:13:27.996Z,61.38
2017-05-08T10:14:38.361Z,61.48
2017-05-08T10:15:48.714Z,61.65
2017-05-08T10:16:59.095Z,61.45
2017-05-08T10:18:09.142Z,61.77
2017-05-08T10:19:19.498Z,61.09
2017-05-08T10:20:29.895Z,61.29
2017-05-08T10:21:39.997Z,61.41
2017-05-08T10:22:50.365Z,61.19
2017-05-08T10:24:00.732Z,61.68
2017-05-08T10:25:11.107Z,61.58
2017-05-08T10:26:21.151Z,61.38
2017-05-08T10:27:31.226Z,61.77
2017-05-08T10:28:41.633Z,61.38
2017-05-08T10:29:52.001Z,61.48
2017-05-08T10:31:02.050Z,61.58
2017-05-08T10:32:12.096Z,61.38
2017-05-08T10:33:22.449Z,61.58
2017-05-08T10:34:32.805Z,61.77
2017-05-08T10:35:43.164Z,61.68
2017-05-08T10:36:53.544Z,60.74
2017-05-08T10:38:03.269Z,61.05
2017-05-08T10:39:13.617Z,60.77
2017-05-08T10:40:23.963Z,60.77
2017-05-08T10:41:33.996Z,60.5
2017-05-08T10:42:44.354Z,60.34
2017-05-08T10:43:54.749Z,60.72
2017-05-08T10:45:05.106Z,61.02
2017-05-08T10:46:15.474Z,61.21
2017-05-08T10:47:25.831Z,60.72
2017-05-08T10:48:35.895Z,60.72
2017-05-08T10:49:46.259Z,60.72
2017-05-08T10:50:55.986Z,60.46
2017-05-08T10:52:06.350Z,61.24
2017-05-08T10:53:16.702Z,61.02
2017-05-08T10:54:27.058Z,61.11
2017-05-08T10:55:37.406Z,60.66
2017-05-08T10:56:47.808Z,60.56
2017-05-08T10:57:58.160Z,60.17
2017-05-08T10:59:08.210Z,60.46
2017-05-08T11:00:18.249Z,60.39
2017-05-08T11:01:28.633Z,60.1
2017-05-08T11:02:38.682Z,60.49
2017-05-08T11:03:49.054Z,60.3
2017-05-08T11:04:59.419Z,60.59
2017-05-08T11:06:09.768Z,60.69
2017-05-08T11:07:19.826Z,60.69
2017-05-08T11:08:30.172Z,60.88
2017-05-08T11:09:39.910Z,60.69
2017-05-08T11:10:50.004Z,61.08
2017-05-08T11:12:00.058Z,60.88
2017-05-08T11:13:10.123Z,60.3
2017-05-08T11:14:20.535Z,61.05
2017-05-08T11:15:30.892Z,61.05
2017-05-08T11:16:40.924Z,61.05
2017-05-08T11:17:50.968Z,60.95
2017-05-08T11:19:01.320Z,61.15
2017-05-08T11:20:11.356Z,60.75
2017-05-08T11:21:21.705Z,60.85
2017-05-08T11:22:31.754Z,61.05
2017-05-08T11:23:42.109Z,60.56
2017-05-08T11:24:52.461Z,60.85
2017-05-08T11:26:03.059Z,60.95
2017-05-08T11:27:13.437Z,60.95
2017-05-08T11:28:23.793Z,60.85
2017-05-08T11:29:34.177Z,61.24
2017-05-08T11:30:44.223Z,60.66
2017-05-08T11:31:54.635Z,60.78
2017-05-08T11:33:04.676Z,60.2
2017-05-08T11:34:14.713Z,61.18
2017-05-08T11:35:25.079Z,61.08
2017-05-08T11:36:35.423Z,61.08
2017-05-08T11:37:45.164Z,61.15
2017-05-08T11:38:55.192Z,61.15
2017-05-08T11:40:05.228Z,60.85
2017-05-08T11:41:15.597Z,60.75
2017-05-08T11:42:25.995Z,61.24
2017-05-08T11:43:36.046Z,61.37
2017-05-08T11:44:46.085Z,60.98
2017-05-08T11:45:55.835Z,61.05
2017-05-08T11:47:05.869Z,60.85
2017-05-08T11:48:16.223Z,61.15
2017-05-08T11:49:26.603Z,60.95
2017-05-08T11:50:36.963Z,60.95
2017-05-08T11:51:46.699Z,60.75
2017-05-08T11:52:57.071Z,60.88
2017-05-08T11:54:07.426Z,60.78
2017-05-08T11:55:17.855Z,60.88
2017-05-08T11:56:28.211Z,60.59
2017-05-08T11:57:37.623Z,60.88
2017-05-08T11:58:47.695Z,60.2
2017-05-08T11:59:58.078Z,60.82
2017-05-08T12:01:08.449Z,61.3
2017-05-08T12:02:18.831Z,60.72
2017-05-08T12:03:29.187Z,60.72
2017-05-08T12:04:39.528Z,61.01
2017-05-08T12:05:49.884Z,61.01
2017-05-08T12:07:00.247Z,60.91
2017-05-08T12:08:10.604Z,60.65
2017-05-08T12:09:20.956Z,60.26
2017-05-08T12:10:31.317Z,60.36
2017-05-08T12:11:41.833Z,60.06
2017-05-08T12:12:52.226Z,60.1
2017-05-08T12:14:02.589Z,60
2017-05-08T12:15:12.697Z,60
2017-05-08T12:16:22.762Z,60.1
2017-05-08T12:17:33.150Z,60
2017-05-08T12:18:43.210Z,60.19
2017-05-08T12:19:53.278Z,60.1
2017-05-08T12:21:03.390Z,59.93
2017-05-08T12:22:13.738Z,60.52
2017-05-08T12:23:24.350Z,60.13
2017-05-08T12:24:34.754Z,60.03
2017-05-08T12:25:45.106Z,60.22
2017-05-08T12:26:55.154Z,60.13
2017-05-08T12:28:05.519Z,60.06
2017-05-08T12:29:15.893Z,60.22
2017-05-08T12:30:26.260Z,59.83
2017-05-08T12:31:36.621Z,60.16
2017-05-08T12:32:46.992Z,60.03
2017-05-08T12:33:57.525Z,59.83
2017-05-08T12:35:07.911Z,60.91
2017-05-08T12:36:17.980Z,60.58
2017-05-08T12:37:28.353Z,60.78
2017-05-08T12:38:38.722Z,60.78
2017-05-08T12:39:49.122Z,60.68
2017-05-08T12:40:59.191Z,60.49
2017-05-08T12:42:09.234Z,60.29
2017-05-08T12:43:19.285Z,60.78
2017-05-08T12:44:29.647Z,61.36
2017-05-08T12:45:39.467Z,60.88
2017-05-08T12:46:49.825Z,61.04
2017-05-08T12:47:59.877Z,61.4
2017-05-08T12:49:09.926Z,60.91
2017-05-08T12:50:20.381Z,61.89
2017-05-08T12:51:30.442Z,61.3
2017-05-08T12:52:40.805Z,61.18
2017-05-08T12:53:51.204Z,61.37
2017-05-08T12:55:01.610Z,60.91
2017-05-08T12:56:11.979Z,61.11
2017-05-08T12:57:22.032Z,60.33
2017-05-08T12:58:32.411Z,61.21
2017-05-08T12:59:42.777Z,61.3
2017-05-08T13:00:53.148Z,61.3
2017-05-08T13:02:03.573Z,60.23
2017-05-08T13:03:13.934Z,61.11
2017-05-08T13:04:24.003Z,61.01
2017-05-08T13:05:34.365Z,61.01
2017-05-08T13:06:44.763Z,61.3
2017-05-08T13:07:55.124Z,61.21
2017-05-08T13:09:05.175Z,61.21
2017-05-08T13:10:15.551Z,60.82
2017-05-08T13:11:26.180Z,61.4
2017-05-08T13:12:36.238Z,61.18
2017-05-08T13:13:46.321Z,60.78
2017-05-08T13:14:56.707Z,60.69
2017-05-08T13:16:07.082Z,60.98
2017-05-08T13:17:17.159Z,60.98
2017-05-08T13:18:27.537Z,61.18
2017-05-08T13:19:37.594Z,61.27
2017-05-08T13:20:48.024Z,61.18
2017-05-08T13:21:58.407Z,61.27
2017-05-08T13:23:08.788Z,61.27
2017-05-08T13:24:19.166Z,61.24
2017-05-08T13:25:29.544Z,60.95
2017-05-08T13:26:39.590Z,61.27
2017-05-08T13:27:49.953Z,60.98
2017-05-08T13:29:00.010Z,61.44
2017-05-08T13:30:10.075Z,61.63
2017-05-08T13:31:20.435Z,61.34
2017-05-08T13:32:30.811Z,61.21
2017-05-08T13:33:41.191Z,61.11
2017-05-08T13:34:51.263Z,61.41
2017-05-08T13:36:01.619Z,61.6
2017-05-08T13:37:11.972Z,61.24
2017-05-08T13:38:22.043Z,61.73
2017-05-08T13:39:32.399Z,61.6
2017-05-08T13:40:42.141Z,61.7
2017-05-08T13:41:52.489Z,61.31
2017-05-08T13:43:02.899Z,60.82
2017-05-08T13:44:12.951Z,61.11
2017-05-08T13:45:22.997Z,60.85
2017-05-08T13:46:33.051Z,60.95
2017-05-08T13:47:43.411Z,61.54
2017-05-08T13:48:53.764Z,61.11
2017-05-08T13:50:04.133Z,61.31
2017-05-08T13:51:14.479Z,61.31
2017-05-08T13:52:24.845Z,61.11
2017-05-08T13:53:35.211Z,61.6
2017-05-08T13:54:45.266Z,61.21
2017-05-08T13:55:55.610Z,61.51
2017-05-08T13:57:05.974Z,61.02
2017-05-08T13:58:16.368Z,61.11
2017-05-08T13:59:26.100Z,61.47
2017-05-08T14:00:36.488Z,61.9
2017-05-08T14:01:46.538Z,61.8
2017-05-08T14:02:56.900Z,61.9
2017-05-08T14:04:06.938Z,61.7
2017-05-08T14:05:16.991Z,61.47
2017-05-08T14:06:27.365Z,61.67
2017-05-08T14:07:37.726Z,61.57
2017-05-08T14:08:47.778Z,61.77
2017-05-08T14:09:58.130Z,61.64
2017-05-08T14:11:08.489Z,61.64
2017-05-08T14:12:18.845Z,61.74
2017-05-08T14:13:28.907Z,62.13
2017-05-08T14:14:39.296Z,61.74
2017-05-08T14:15:49.660Z,61.93
2017-05-08T14:16:59.704Z,61.93
2017-05-08T14:18:09.754Z,61.9
2017-05-08T14:19:19.800Z,62.1
2017-05-08T14:20:30.177Z,61.9
2017-05-08T14:21:40.560Z,62.77
2017-05-08T14:22:50.962Z,62.48
2017-05-08T14:24:00.708Z,62.29
2017-05-08T14:25:11.067Z,62.45
2017-05-08T14:26:21.406Z,62.35
2017-05-08T14:27:31.777Z,62.16
2017-05-08T14:28:42.126Z,62.94
2017-05-08T14:29:52.483Z,62.84
2017-05-08T14:31:02.854Z,63.01
2017-05-08T14:32:13.202Z,62.78
2017-05-08T14:33:23.558Z,62.88
2017-05-08T14:34:33.953Z,62.98
2017-05-08T14:35:44.326Z,63.07
2017-05-08T14:36:54.703Z,63.07
2017-05-08T14:38:04.745Z,63.56
2017-05-08T14:39:14.792Z,63.23
2017-05-08T14:40:24.848Z,63.04
2017-05-08T14:41:35.215Z,63.04
2017-05-08T14:42:45.576Z,63.04
2017-05-08T14:43:55.930Z,62.85
2017-05-08T14:45:06.026Z,62.72
2017-05-08T14:46:16.382Z,63.01
2017-05-08T14:47:26.750Z,62.85
2017-05-08T14:48:36.778Z,62.82
2017-05-08T14:49:47.150Z,62.82
2017-05-08T14:50:57.523Z,62.91
2017-05-08T14:52:07.552Z,63.1
2017-05-08T14:53:17.915Z,62.91
2017-05-08T14:54:27.650Z,62.72
2017-05-08T14:55:38.013Z,62.72
2017-05-08T14:56:48.061Z,63.01
2017-05-08T14:57:57.801Z,63.01
2017-05-08T14:59:08.158Z,63.4
2017-05-08T15:00:18.513Z,63.59
2017-05-08T15:01:28.547Z,63.2
2017-05-08T15:02:38.923Z,63.65
2017-05-08T15:03:49.284Z,63.85
2017-05-08T15:04:59.634Z,64.04
2017-05-08T15:06:09.982Z,64.14
2017-05-08T15:07:20.016Z,64.59
2017-05-08T15:08:29.750Z,64.3
2017-05-08T15:09:39.824Z,64.4
2017-05-08T15:10:49.545Z,64.75
2017-05-08T15:11:59.904Z,64.95
2017-05-08T15:13:10.268Z,64.37
2017-05-08T15:14:20.633Z,64.17
2017-05-08T15:15:30.673Z,64.37
2017-05-08T15:16:41.042Z,64.66
2017-05-08T15:17:51.389Z,64.37
2017-05-08T15:19:01.765Z,63.98
2017-05-08T15:20:12.135Z,64.47
2017-05-08T15:21:22.498Z,64.17
2017-05-08T15:22:32.869Z,64.24
2017-05-08T15:23:42.905Z,64.92
2017-05-08T15:24:52.953Z,64.72
2017-05-08T15:26:03.305Z,64.92
2017-05-08T15:27:13.643Z,64.92
2017-05-08T15:28:23.699Z,64.62
2017-05-08T15:29:34.056Z,64.62
2017-05-08T15:30:43.800Z,64.14
2017-05-08T15:31:54.175Z,64.31
2017-05-08T15:33:04.538Z,64.31
2017-05-08T15:34:14.883Z,64.01
2017-05-08T15:35:24.920Z,64.4
2017-05-08T15:36:35.285Z,64.08
2017-05-08T15:37:45.334Z,64.66